sensor_id;sensor_type;location;lat;lon;timestamp;P1;durP1;ratioP1;P2;durP2;ratioP2
42904;SDS011;28550;51.228;4.528;2023-04-15T00:01:58;10.32;;;4.93;;
42904;SDS011;28550;51.228;4.528;2023-04-15T00:04:24;16.13;;;6.32;;
42904;SDS011;28550;51.228;4.528;2023-04-15T00:06:50;11.15;;;5.40;;
42904;SDS011;28550;51.228;4.528;2023-04-15T00:09:17;12.00;;;6.18;;
42904;SDS011;28550;51.228;4.528;2023-04-15T00:11:49;6.75;;;4.50;;
42904;SDS011;28550;51.228;4.528;2023-04-15T00:14:15;12.18;;;6.07;;
42904;SDS011;28550;51.228;4.528;2023-04-15T00:16:41;7.97;;;5.72;;
42904;SDS011;28550;51.228;4.528;2023-04-15T00:19:07;8.85;;;5.32;;
42904;SDS011;28550;51.228;4.528;2023-04-15T00:21:34;10.15;;;5.65;;
42904;SDS011;28550;51.228;4.528;2023-04-15T00:24:03;9.15;;;5.10;;
42904;SDS011;28550;51.228;4.528;2023-04-15T00:26:29;9.52;;;5.85;;
42904;SDS011;28550;51.228;4.528;2023-04-15T00:28:57;8.95;;;5.63;;
42904;SDS011;28550;51.228;4.528;2023-04-15T00:31:23;11.82;;;4.97;;
42904;SDS011;28550;51.228;4.528;2023-04-15T00:33:49;10.85;;;4.90;;
42904;SDS011;28550;51.228;4.528;2023-04-15T00:36:21;9.75;;;4.95;;
42904;SDS011;28550;51.228;4.528;2023-04-15T00:38:50;5.80;;;4.70;;
42904;SDS011;28550;51.228;4.528;2023-04-15T00:41:16;10.98;;;4.78;;
42904;SDS011;28550;51.228;4.528;2023-04-15T00:44:04;11.05;;;5.25;;
42904;SDS011;28550;51.228;4.528;2023-04-15T00:46:34;12.23;;;5.82;;
42904;SDS011;28550;51.228;4.528;2023-04-15T00:49:38;11.63;;;4.80;;
42904;SDS011;28550;51.228;4.528;2023-04-15T00:52:06;13.45;;;5.70;;
42904;SDS011;28550;51.228;4.528;2023-04-15T00:54:37;9.27;;;5.43;;
42904;SDS011;28550;51.228;4.528;2023-04-15T00:57:07;13.52;;;5.47;;
42904;SDS011;28550;51.228;4.528;2023-04-15T00:59:33;9.85;;;5.68;;
42904;SDS011;28550;51.228;4.528;2023-04-15T01:02:00;12.18;;;5.72;;
42904;SDS011;28550;51.228;4.528;2023-04-15T01:04:25;9.93;;;5.53;;
42904;SDS011;28550;51.228;4.528;2023-04-15T01:06:51;9.00;;;5.50;;
42904;SDS011;28550;51.228;4.528;2023-04-15T01:09:17;11.60;;;6.00;;
42904;SDS011;28550;51.228;4.528;2023-04-15T01:11:43;10.55;;;5.60;;
42904;SDS011;28550;51.228;4.528;2023-04-15T01:14:09;9.38;;;5.55;;
42904;SDS011;28550;51.228;4.528;2023-04-15T01:16:37;8.45;;;5.13;;
42904;SDS011;28550;51.228;4.528;2023-04-15T01:19:07;7.28;;;4.90;;
42904;SDS011;28550;51.228;4.528;2023-04-15T01:21:42;8.40;;;5.00;;
42904;SDS011;28550;51.228;4.528;2023-04-15T01:24:08;8.75;;;4.97;;
42904;SDS011;28550;51.228;4.528;2023-04-15T01:26:38;12.30;;;4.97;;
42904;SDS011;28550;51.228;4.528;2023-04-15T01:29:04;11.45;;;5.13;;
42904;SDS011;28550;51.228;4.528;2023-04-15T01:31:31;12.55;;;6.15;;
42904;SDS011;28550;51.228;4.528;2023-04-15T01:33:57;9.13;;;5.28;;
42904;SDS011;28550;51.228;4.528;2023-04-15T01:36:23;9.45;;;5.85;;
42904;SDS011;28550;51.228;4.528;2023-04-15T01:38:49;8.32;;;5.13;;
42904;SDS011;28550;51.228;4.528;2023-04-15T01:41:15;12.00;;;5.43;;
42904;SDS011;28550;51.228;4.528;2023-04-15T01:43:47;9.05;;;5.25;;
42904;SDS011;28550;51.228;4.528;2023-04-15T01:46:33;13.75;;;5.75;;
42904;SDS011;28550;51.228;4.528;2023-04-15T01:49:04;9.88;;;5.80;;
42904;SDS011;28550;51.228;4.528;2023-04-15T01:51:30;11.85;;;5.70;;
42904;SDS011;28550;51.228;4.528;2023-04-15T01:54:00;8.00;;;5.38;;
42904;SDS011;28550;51.228;4.528;2023-04-15T01:56:26;10.90;;;6.00;;
42904;SDS011;28550;51.228;4.528;2023-04-15T01:58:52;9.05;;;5.50;;
42904;SDS011;28550;51.228;4.528;2023-04-15T02:01:21;9.93;;;5.80;;
42904;SDS011;28550;51.228;4.528;2023-04-15T02:03:46;10.50;;;6.07;;
42904;SDS011;28550;51.228;4.528;2023-04-15T02:06:12;10.25;;;6.75;;
42904;SDS011;28550;51.228;4.528;2023-04-15T02:08:38;8.85;;;6.18;;
42904;SDS011;28550;51.228;4.528;2023-04-15T02:11:09;18.73;;;6.20;;
42904;SDS011;28550;51.228;4.528;2023-04-15T02:13:36;12.07;;;6.68;;
42904;SDS011;28550;51.228;4.528;2023-04-15T02:16:02;11.38;;;6.15;;
42904;SDS011;28550;51.228;4.528;2023-04-15T02:18:28;14.60;;;7.28;;
42904;SDS011;28550;51.228;4.528;2023-04-15T02:20:53;12.82;;;6.30;;
42904;SDS011;28550;51.228;4.528;2023-04-15T02:23:21;10.52;;;6.60;;
42904;SDS011;28550;51.228;4.528;2023-04-15T02:25:46;13.18;;;6.68;;
42904;SDS011;28550;51.228;4.528;2023-04-15T02:28:12;17.40;;;7.80;;
42904;SDS011;28550;51.228;4.528;2023-04-15T02:30:38;8.88;;;6.30;;
42904;SDS011;28550;51.228;4.528;2023-04-15T02:33:05;14.35;;;7.30;;
42904;SDS011;28550;51.228;4.528;2023-04-15T02:35:31;12.00;;;7.13;;
42904;SDS011;28550;51.228;4.528;2023-04-15T02:37:57;10.98;;;6.53;;
42904;SDS011;28550;51.228;4.528;2023-04-15T02:40:24;11.23;;;7.05;;
42904;SDS011;28550;51.228;4.528;2023-04-15T02:42:52;9.35;;;6.32;;
42904;SDS011;28550;51.228;4.528;2023-04-15T02:45:18;9.35;;;6.80;;
42904;SDS011;28550;51.228;4.528;2023-04-15T02:47:47;10.90;;;6.50;;
42904;SDS011;28550;51.228;4.528;2023-04-15T02:50:15;14.55;;;7.25;;
42904;SDS011;28550;51.228;4.528;2023-04-15T02:52:41;12.35;;;6.60;;
42904;SDS011;28550;51.228;4.528;2023-04-15T02:55:08;12.80;;;7.10;;
42904;SDS011;28550;51.228;4.528;2023-04-15T02:57:34;8.75;;;6.30;;
42904;SDS011;28550;51.228;4.528;2023-04-15T03:00:04;11.57;;;7.05;;
42904;SDS011;28550;51.228;4.528;2023-04-15T03:02:37;13.40;;;6.80;;
42904;SDS011;28550;51.228;4.528;2023-04-15T03:05:06;12.65;;;6.53;;
42904;SDS011;28550;51.228;4.528;2023-04-15T03:07:35;11.98;;;6.28;;
42904;SDS011;28550;51.228;4.528;2023-04-15T03:10:01;17.90;;;8.38;;
42904;SDS011;28550;51.228;4.528;2023-04-15T03:12:27;10.93;;;6.68;;
42904;SDS011;28550;51.228;4.528;2023-04-15T03:14:56;12.45;;;7.68;;
42904;SDS011;28550;51.228;4.528;2023-04-15T03:17:26;14.05;;;7.20;;
42904;SDS011;28550;51.228;4.528;2023-04-15T03:19:52;14.98;;;7.90;;
42904;SDS011;28550;51.228;4.528;2023-04-15T03:22:17;9.35;;;6.68;;
42904;SDS011;28550;51.228;4.528;2023-04-15T03:24:43;12.18;;;7.78;;
42904;SDS011;28550;51.228;4.528;2023-04-15T03:27:09;12.50;;;6.97;;
42904;SDS011;28550;51.228;4.528;2023-04-15T03:29:34;10.95;;;7.35;;
42904;SDS011;28550;51.228;4.528;2023-04-15T03:32:00;10.75;;;6.90;;
42904;SDS011;28550;51.228;4.528;2023-04-15T03:34:36;14.75;;;6.97;;
42904;SDS011;28550;51.228;4.528;2023-04-15T03:37:01;12.85;;;7.85;;
42904;SDS011;28550;51.228;4.528;2023-04-15T03:39:30;15.95;;;7.93;;
42904;SDS011;28550;51.228;4.528;2023-04-15T03:41:55;14.45;;;7.63;;
42904;SDS011;28550;51.228;4.528;2023-04-15T03:44:22;16.08;;;7.82;;
42904;SDS011;28550;51.228;4.528;2023-04-15T03:46:48;12.73;;;8.98;;
42904;SDS011;28550;51.228;4.528;2023-04-15T03:49:14;18.02;;;9.05;;
42904;SDS011;28550;51.228;4.528;2023-04-15T03:51:40;15.95;;;9.27;;
42904;SDS011;28550;51.228;4.528;2023-04-15T03:54:06;14.25;;;8.63;;
42904;SDS011;28550;51.228;4.528;2023-04-15T03:56:58;17.67;;;9.57;;
42904;SDS011;28550;51.228;4.528;2023-04-15T03:59:25;13.35;;;8.65;;
42904;SDS011;28550;51.228;4.528;2023-04-15T04:01:51;13.82;;;8.88;;
42904;SDS011;28550;51.228;4.528;2023-04-15T04:04:17;17.40;;;8.90;;
42904;SDS011;28550;51.228;4.528;2023-04-15T04:06:43;19.75;;;10.00;;
42904;SDS011;28550;51.228;4.528;2023-04-15T04:09:08;15.68;;;9.68;;
42904;SDS011;28550;51.228;4.528;2023-04-15T04:11:35;17.30;;;11.00;;
42904;SDS011;28550;51.228;4.528;2023-04-15T04:14:01;15.82;;;8.88;;
42904;SDS011;28550;51.228;4.528;2023-04-15T04:16:27;17.38;;;10.00;;
42904;SDS011;28550;51.228;4.528;2023-04-15T04:18:59;19.60;;;9.55;;
42904;SDS011;28550;51.228;4.528;2023-04-15T04:21:25;17.20;;;9.27;;
42904;SDS011;28550;51.228;4.528;2023-04-15T04:23:50;17.05;;;9.70;;
42904;SDS011;28550;51.228;4.528;2023-04-15T04:26:19;18.75;;;9.07;;
42904;SDS011;28550;51.228;4.528;2023-04-15T04:28:44;15.95;;;8.88;;
42904;SDS011;28550;51.228;4.528;2023-04-15T04:31:10;15.43;;;9.48;;
42904;SDS011;28550;51.228;4.528;2023-04-15T04:33:36;16.90;;;9.48;;
42904;SDS011;28550;51.228;4.528;2023-04-15T04:36:02;17.00;;;10.55;;
42904;SDS011;28550;51.228;4.528;2023-04-15T04:38:27;17.85;;;12.07;;
42904;SDS011;28550;51.228;4.528;2023-04-15T04:40:53;20.63;;;11.73;;
42904;SDS011;28550;51.228;4.528;2023-04-15T04:43:19;17.60;;;11.52;;
42904;SDS011;28550;51.228;4.528;2023-04-15T04:46:05;17.67;;;10.48;;
42904;SDS011;28550;51.228;4.528;2023-04-15T04:48:44;15.85;;;11.60;;
42904;SDS011;28550;51.228;4.528;2023-04-15T04:51:10;17.73;;;11.27;;
42904;SDS011;28550;51.228;4.528;2023-04-15T04:53:36;20.50;;;12.77;;
42904;SDS011;28550;51.228;4.528;2023-04-15T04:56:05;18.85;;;12.18;;
42904;SDS011;28550;51.228;4.528;2023-04-15T05:01:06;20.08;;;13.23;;
42904;SDS011;28550;51.228;4.528;2023-04-15T05:06:28;25.65;;;12.15;;
42904;SDS011;28550;51.228;4.528;2023-04-15T05:08:57;21.55;;;12.63;;
42904;SDS011;28550;51.228;4.528;2023-04-15T05:11:23;25.98;;;13.23;;
42904;SDS011;28550;51.228;4.528;2023-04-15T05:13:49;23.38;;;12.55;;
42904;SDS011;28550;51.228;4.528;2023-04-15T05:16:14;29.98;;;14.07;;
42904;SDS011;28550;51.228;4.528;2023-04-15T05:18:41;23.95;;;13.77;;
42904;SDS011;28550;51.228;4.528;2023-04-15T05:21:06;21.23;;;12.63;;
42904;SDS011;28550;51.228;4.528;2023-04-15T05:23:32;18.92;;;12.27;;
42904;SDS011;28550;51.228;4.528;2023-04-15T05:25:58;19.27;;;12.57;;
42904;SDS011;28550;51.228;4.528;2023-04-15T05:28:36;21.13;;;12.45;;
42904;SDS011;28550;51.228;4.528;2023-04-15T05:33:39;19.27;;;12.98;;
42904;SDS011;28550;51.228;4.528;2023-04-15T05:36:05;21.40;;;13.77;;
42904;SDS011;28550;51.228;4.528;2023-04-15T05:38:31;21.88;;;14.18;;
42904;SDS011;28550;51.228;4.528;2023-04-15T05:40:57;19.90;;;13.43;;
42904;SDS011;28550;51.228;4.528;2023-04-15T05:43:22;25.98;;;13.95;;
42904;SDS011;28550;51.228;4.528;2023-04-15T05:45:48;24.08;;;14.05;;
42904;SDS011;28550;51.228;4.528;2023-04-15T05:48:14;22.65;;;15.15;;
42904;SDS011;28550;51.228;4.528;2023-04-15T05:50:42;26.02;;;15.48;;
42904;SDS011;28550;51.228;4.528;2023-04-15T05:53:08;26.50;;;15.57;;
42904;SDS011;28550;51.228;4.528;2023-04-15T05:55:34;22.23;;;14.35;;
42904;SDS011;28550;51.228;4.528;2023-04-15T05:58:00;24.08;;;15.23;;
42904;SDS011;28550;51.228;4.528;2023-04-15T06:00:31;25.45;;;17.10;;
42904;SDS011;28550;51.228;4.528;2023-04-15T06:02:56;25.33;;;16.58;;
42904;SDS011;28550;51.228;4.528;2023-04-15T06:05:23;29.00;;;16.55;;
42904;SDS011;28550;51.228;4.528;2023-04-15T06:07:49;25.85;;;16.65;;
42904;SDS011;28550;51.228;4.528;2023-04-15T06:10:15;28.65;;;17.25;;
42904;SDS011;28550;51.228;4.528;2023-04-15T06:12:41;26.80;;;18.65;;
42904;SDS011;28550;51.228;4.528;2023-04-15T06:15:06;26.10;;;17.48;;
42904;SDS011;28550;51.228;4.528;2023-04-15T06:17:34;31.52;;;18.52;;
42904;SDS011;28550;51.228;4.528;2023-04-15T06:20:00;26.30;;;18.55;;
42904;SDS011;28550;51.228;4.528;2023-04-15T06:22:28;24.65;;;17.83;;
42904;SDS011;28550;51.228;4.528;2023-04-15T06:24:54;33.45;;;19.00;;
42904;SDS011;28550;51.228;4.528;2023-04-15T06:27:20;28.80;;;17.70;;
42904;SDS011;28550;51.228;4.528;2023-04-15T06:29:50;30.92;;;18.17;;
42904;SDS011;28550;51.228;4.528;2023-04-15T06:32:15;27.33;;;18.00;;
42904;SDS011;28550;51.228;4.528;2023-04-15T06:34:41;27.08;;;17.67;;
42904;SDS011;28550;51.228;4.528;2023-04-15T06:37:07;21.95;;;16.02;;
42904;SDS011;28550;51.228;4.528;2023-04-15T06:39:35;24.80;;;17.05;;
42904;SDS011;28550;51.228;4.528;2023-04-15T06:42:01;26.42;;;16.45;;
42904;SDS011;28550;51.228;4.528;2023-04-15T06:47:02;29.33;;;17.13;;
42904;SDS011;28550;51.228;4.528;2023-04-15T06:49:29;23.65;;;16.45;;
42904;SDS011;28550;51.228;4.528;2023-04-15T06:51:55;24.50;;;16.80;;
42904;SDS011;28550;51.228;4.528;2023-04-15T06:54:21;27.58;;;16.80;;
42904;SDS011;28550;51.228;4.528;2023-04-15T06:56:47;20.80;;;15.23;;
42904;SDS011;28550;51.228;4.528;2023-04-15T06:59:16;26.25;;;16.05;;
42904;SDS011;28550;51.228;4.528;2023-04-15T07:01:43;18.52;;;14.35;;
42904;SDS011;28550;51.228;4.528;2023-04-15T07:07:19;19.58;;;14.27;;
42904;SDS011;28550;51.228;4.528;2023-04-15T07:09:45;20.90;;;13.32;;
42904;SDS011;28550;51.228;4.528;2023-04-15T07:12:11;17.25;;;11.27;;
42904;SDS011;28550;51.228;4.528;2023-04-15T07:14:49;18.00;;;12.27;;
42904;SDS011;28550;51.228;4.528;2023-04-15T07:17:14;16.88;;;11.68;;
42904;SDS011;28550;51.228;4.528;2023-04-15T07:19:40;15.38;;;11.10;;
42904;SDS011;28550;51.228;4.528;2023-04-15T07:22:09;16.77;;;10.88;;
42904;SDS011;28550;51.228;4.528;2023-04-15T07:24:38;16.40;;;11.43;;
42904;SDS011;28550;51.228;4.528;2023-04-15T07:27:03;15.65;;;11.15;;
42904;SDS011;28550;51.228;4.528;2023-04-15T07:29:32;13.80;;;10.77;;
42904;SDS011;28550;51.228;4.528;2023-04-15T07:32:16;16.38;;;10.80;;
42904;SDS011;28550;51.228;4.528;2023-04-15T07:34:57;18.95;;;10.68;;
42904;SDS011;28550;51.228;4.528;2023-04-15T07:37:22;18.52;;;10.20;;
42904;SDS011;28550;51.228;4.528;2023-04-15T07:39:48;16.65;;;10.57;;
42904;SDS011;28550;51.228;4.528;2023-04-15T07:42:14;13.23;;;9.68;;
42904;SDS011;28550;51.228;4.528;2023-04-15T07:44:40;16.83;;;11.50;;
42904;SDS011;28550;51.228;4.528;2023-04-15T07:47:11;18.83;;;10.43;;
42904;SDS011;28550;51.228;4.528;2023-04-15T07:49:37;15.77;;;11.13;;
42904;SDS011;28550;51.228;4.528;2023-04-15T07:55:25;13.15;;;10.10;;
42904;SDS011;28550;51.228;4.528;2023-04-15T07:57:51;11.48;;;9.38;;
42904;SDS011;28550;51.228;4.528;2023-04-15T08:00:19;11.50;;;9.38;;
42904;SDS011;28550;51.228;4.528;2023-04-15T08:02:48;12.73;;;9.88;;
42904;SDS011;28550;51.228;4.528;2023-04-15T08:05:21;15.48;;;9.98;;
42904;SDS011;28550;51.228;4.528;2023-04-15T08:07:46;16.63;;;10.93;;
42904;SDS011;28550;51.228;4.528;2023-04-15T08:13:12;15.30;;;9.75;;
42904;SDS011;28550;51.228;4.528;2023-04-15T08:15:38;19.80;;;9.32;;
42904;SDS011;28550;51.228;4.528;2023-04-15T08:18:04;14.15;;;9.50;;
42904;SDS011;28550;51.228;4.528;2023-04-15T08:20:29;12.60;;;9.20;;
42904;SDS011;28550;51.228;4.528;2023-04-15T08:22:55;14.93;;;9.20;;
42904;SDS011;28550;51.228;4.528;2023-04-15T08:25:21;13.05;;;8.48;;
42904;SDS011;28550;51.228;4.528;2023-04-15T08:30:37;10.82;;;9.02;;
42904;SDS011;28550;51.228;4.528;2023-04-15T08:33:23;16.42;;;9.73;;
42904;SDS011;28550;51.228;4.528;2023-04-15T08:38:56;13.07;;;9.50;;
42904;SDS011;28550;51.228;4.528;2023-04-15T08:41:23;18.95;;;9.30;;
42904;SDS011;28550;51.228;4.528;2023-04-15T08:43:52;12.63;;;8.77;;
42904;SDS011;28550;51.228;4.528;2023-04-15T08:46:31;12.23;;;8.45;;
42904;SDS011;28550;51.228;4.528;2023-04-15T08:49:02;10.43;;;8.32;;
42904;SDS011;28550;51.228;4.528;2023-04-15T08:51:41;11.75;;;7.88;;
42904;SDS011;28550;51.228;4.528;2023-04-15T08:54:16;12.57;;;7.57;;
42904;SDS011;28550;51.228;4.528;2023-04-15T08:56:43;9.10;;;7.00;;
42904;SDS011;28550;51.228;4.528;2023-04-15T08:59:15;11.80;;;8.80;;
42904;SDS011;28550;51.228;4.528;2023-04-15T09:01:42;8.07;;;6.00;;
42904;SDS011;28550;51.228;4.528;2023-04-15T09:04:32;12.00;;;8.13;;
42904;SDS011;28550;51.228;4.528;2023-04-15T09:06:58;10.50;;;6.63;;
42904;SDS011;28550;51.228;4.528;2023-04-15T09:09:23;27.48;;;8.05;;
42904;SDS011;28550;51.228;4.528;2023-04-15T09:11:49;9.30;;;6.63;;
42904;SDS011;28550;51.228;4.528;2023-04-15T09:14:15;12.32;;;6.97;;
42904;SDS011;28550;51.228;4.528;2023-04-15T09:16:57;14.75;;;6.90;;
42904;SDS011;28550;51.228;4.528;2023-04-15T09:19:24;7.38;;;6.35;;
42904;SDS011;28550;51.228;4.528;2023-04-15T09:21:51;10.70;;;6.38;;
42904;SDS011;28550;51.228;4.528;2023-04-15T09:24:23;16.42;;;7.15;;
42904;SDS011;28550;51.228;4.528;2023-04-15T09:26:52;9.02;;;7.20;;
42904;SDS011;28550;51.228;4.528;2023-04-15T09:29:20;7.82;;;6.45;;
42904;SDS011;28550;51.228;4.528;2023-04-15T09:31:49;9.25;;;6.13;;
42904;SDS011;28550;51.228;4.528;2023-04-15T09:34:15;12.98;;;6.13;;
42904;SDS011;28550;51.228;4.528;2023-04-15T09:39:10;12.27;;;6.13;;
42904;SDS011;28550;51.228;4.528;2023-04-15T09:41:36;10.05;;;5.95;;
42904;SDS011;28550;51.228;4.528;2023-04-15T09:44:02;9.90;;;5.85;;
42904;SDS011;28550;51.228;4.528;2023-04-15T09:46:41;11.73;;;6.30;;
42904;SDS011;28550;51.228;4.528;2023-04-15T09:49:09;9.23;;;5.78;;
42904;SDS011;28550;51.228;4.528;2023-04-15T09:51:38;22.05;;;6.40;;
42904;SDS011;28550;51.228;4.528;2023-04-15T09:54:04;18.17;;;6.30;;
42904;SDS011;28550;51.228;4.528;2023-04-15T09:56:34;13.77;;;6.18;;
42904;SDS011;28550;51.228;4.528;2023-04-15T09:59:03;7.97;;;6.80;;
42904;SDS011;28550;51.228;4.528;2023-04-15T10:01:30;11.35;;;6.68;;
42904;SDS011;28550;51.228;4.528;2023-04-15T10:03:56;9.57;;;6.55;;
42904;SDS011;28550;51.228;4.528;2023-04-15T10:06:22;8.82;;;5.55;;
42904;SDS011;28550;51.228;4.528;2023-04-15T10:08:50;9.98;;;5.22;;
42904;SDS011;28550;51.228;4.528;2023-04-15T10:11:17;9.82;;;5.30;;
42904;SDS011;28550;51.228;4.528;2023-04-15T10:13:46;9.95;;;5.95;;
42904;SDS011;28550;51.228;4.528;2023-04-15T10:16:20;9.88;;;5.53;;
42904;SDS011;28550;51.228;4.528;2023-04-15T10:18:50;10.43;;;6.47;;
42904;SDS011;28550;51.228;4.528;2023-04-15T10:21:19;8.98;;;5.47;;
42904;SDS011;28550;51.228;4.528;2023-04-15T10:23:47;6.28;;;5.35;;
42904;SDS011;28550;51.228;4.528;2023-04-15T10:26:14;10.35;;;5.88;;
42904;SDS011;28550;51.228;4.528;2023-04-15T10:28:41;16.85;;;7.22;;
42904;SDS011;28550;51.228;4.528;2023-04-15T10:31:17;9.50;;;6.43;;
42904;SDS011;28550;51.228;4.528;2023-04-15T10:33:44;10.43;;;6.15;;
42904;SDS011;28550;51.228;4.528;2023-04-15T10:36:12;8.70;;;6.32;;
42904;SDS011;28550;51.228;4.528;2023-04-15T10:38:45;11.13;;;6.90;;
42904;SDS011;28550;51.228;4.528;2023-04-15T10:41:15;10.57;;;5.57;;
42904;SDS011;28550;51.228;4.528;2023-04-15T10:46:23;8.30;;;5.53;;
42904;SDS011;28550;51.228;4.528;2023-04-15T10:49:13;6.70;;;4.43;;
42904;SDS011;28550;51.228;4.528;2023-04-15T10:51:41;6.20;;;5.00;;
42904;SDS011;28550;51.228;4.528;2023-04-15T10:54:15;8.40;;;4.82;;
42904;SDS011;28550;51.228;4.528;2023-04-15T10:59:35;23.92;;;6.47;;
42904;SDS011;28550;51.228;4.528;2023-04-15T11:02:06;9.13;;;6.13;;
42904;SDS011;28550;51.228;4.528;2023-04-15T11:15:47;9.10;;;5.32;;
42904;SDS011;28550;51.228;4.528;2023-04-15T11:18:29;10.45;;;4.50;;
42904;SDS011;28550;51.228;4.528;2023-04-15T11:21:00;8.45;;;4.18;;
42904;SDS011;28550;51.228;4.528;2023-04-15T11:23:40;7.07;;;3.63;;
42904;SDS011;28550;51.228;4.528;2023-04-15T11:26:12;7.78;;;4.10;;
42904;SDS011;28550;51.228;4.528;2023-04-15T11:28:40;5.45;;;3.53;;
42904;SDS011;28550;51.228;4.528;2023-04-15T11:31:10;13.50;;;4.10;;
42904;SDS011;28550;51.228;4.528;2023-04-15T11:33:43;5.55;;;2.95;;
42904;SDS011;28550;51.228;4.528;2023-04-15T11:36:29;9.95;;;3.10;;
42904;SDS011;28550;51.228;4.528;2023-04-15T11:38:59;10.52;;;3.58;;
42904;SDS011;28550;51.228;4.528;2023-04-15T11:41:26;5.47;;;3.35;;
42904;SDS011;28550;51.228;4.528;2023-04-15T11:43:52;10.18;;;3.72;;
42904;SDS011;28550;51.228;4.528;2023-04-15T11:46:17;7.43;;;3.65;;
42904;SDS011;28550;51.228;4.528;2023-04-15T11:48:44;4.95;;;3.08;;
42904;SDS011;28550;51.228;4.528;2023-04-15T11:51:19;6.50;;;4.25;;
42904;SDS011;28550;51.228;4.528;2023-04-15T11:53:49;9.60;;;4.18;;
42904;SDS011;28550;51.228;4.528;2023-04-15T11:56:16;6.13;;;4.25;;
42904;SDS011;28550;51.228;4.528;2023-04-15T11:58:44;7.05;;;4.95;;
42904;SDS011;28550;51.228;4.528;2023-04-15T12:01:10;7.03;;;4.65;;
42904;SDS011;28550;51.228;4.528;2023-04-15T12:03:41;7.22;;;4.38;;
42904;SDS011;28550;51.228;4.528;2023-04-15T12:06:21;6.50;;;3.88;;
42904;SDS011;28550;51.228;4.528;2023-04-15T12:09:15;4.50;;;3.72;;
42904;SDS011;28550;51.228;4.528;2023-04-15T12:11:42;5.57;;;3.63;;
42904;SDS011;28550;51.228;4.528;2023-04-15T12:16:46;6.10;;;4.00;;
42904;SDS011;28550;51.228;4.528;2023-04-15T12:19:13;7.63;;;3.75;;
42904;SDS011;28550;51.228;4.528;2023-04-15T12:21:43;3.83;;;3.17;;
42904;SDS011;28550;51.228;4.528;2023-04-15T12:24:10;5.13;;;3.60;;
42904;SDS011;28550;51.228;4.528;2023-04-15T12:26:52;5.20;;;3.13;;
42904;SDS011;28550;51.228;4.528;2023-04-15T12:29:23;4.75;;;3.78;;
42904;SDS011;28550;51.228;4.528;2023-04-15T12:31:58;6.60;;;3.70;;
42904;SDS011;28550;51.228;4.528;2023-04-15T12:34:33;8.45;;;3.97;;
42904;SDS011;28550;51.228;4.528;2023-04-15T12:37:01;6.10;;;4.40;;
42904;SDS011;28550;51.228;4.528;2023-04-15T12:39:29;5.55;;;3.78;;
42904;SDS011;28550;51.228;4.528;2023-04-15T12:41:56;8.52;;;3.65;;
42904;SDS011;28550;51.228;4.528;2023-04-15T12:44:34;4.03;;;3.08;;
42904;SDS011;28550;51.228;4.528;2023-04-15T12:47:00;6.28;;;3.00;;
42904;SDS011;28550;51.228;4.528;2023-04-15T12:49:27;4.40;;;3.03;;
42904;SDS011;28550;51.228;4.528;2023-04-15T12:51:54;5.88;;;3.00;;
42904;SDS011;28550;51.228;4.528;2023-04-15T12:54:27;7.07;;;3.10;;
42904;SDS011;28550;51.228;4.528;2023-04-15T12:56:53;5.13;;;3.00;;
42904;SDS011;28550;51.228;4.528;2023-04-15T12:59:20;20.17;;;4.50;;
42904;SDS011;28550;51.228;4.528;2023-04-15T13:01:47;8.27;;;3.83;;
42904;SDS011;28550;51.228;4.528;2023-04-15T13:04:13;6.28;;;3.33;;
42904;SDS011;28550;51.228;4.528;2023-04-15T13:06:39;6.55;;;3.80;;
42904;SDS011;28550;51.228;4.528;2023-04-15T13:09:05;5.18;;;3.65;;
42904;SDS011;28550;51.228;4.528;2023-04-15T13:11:31;5.10;;;2.20;;
42904;SDS011;28550;51.228;4.528;2023-04-15T13:14:07;4.82;;;2.67;;
42904;SDS011;28550;51.228;4.528;2023-04-15T13:16:35;6.18;;;2.25;;
42904;SDS011;28550;51.228;4.528;2023-04-15T13:19:04;4.05;;;1.30;;
42904;SDS011;28550;51.228;4.528;2023-04-15T13:21:32;4.05;;;1.90;;
42904;SDS011;28550;51.228;4.528;2023-04-15T13:23:59;3.35;;;1.58;;
42904;SDS011;28550;51.228;4.528;2023-04-15T13:26:31;5.40;;;1.73;;
42904;SDS011;28550;51.228;4.528;2023-04-15T13:28:57;3.28;;;1.67;;
42904;SDS011;28550;51.228;4.528;2023-04-15T13:31:22;5.10;;;1.95;;
42904;SDS011;28550;51.228;4.528;2023-04-15T13:33:51;3.70;;;2.30;;
42904;SDS011;28550;51.228;4.528;2023-04-15T13:36:17;5.25;;;1.80;;
42904;SDS011;28550;51.228;4.528;2023-04-15T13:38:42;8.98;;;2.83;;
42904;SDS011;28550;51.228;4.528;2023-04-15T13:41:11;6.32;;;2.30;;
42904;SDS011;28550;51.228;4.528;2023-04-15T13:43:39;11.05;;;2.92;;
42904;SDS011;28550;51.228;4.528;2023-04-15T13:46:05;5.80;;;3.28;;
42904;SDS011;28550;51.228;4.528;2023-04-15T13:48:31;4.88;;;2.85;;
42904;SDS011;28550;51.228;4.528;2023-04-15T13:50:56;4.07;;;3.05;;
42904;SDS011;28550;51.228;4.528;2023-04-15T13:53:22;6.45;;;3.70;;
42904;SDS011;28550;51.228;4.528;2023-04-15T13:55:48;25.02;;;3.80;;
42904;SDS011;28550;51.228;4.528;2023-04-15T13:58:13;7.53;;;3.50;;
42904;SDS011;28550;51.228;4.528;2023-04-15T14:00:40;7.07;;;3.92;;
42904;SDS011;28550;51.228;4.528;2023-04-15T14:03:09;6.88;;;3.38;;
42904;SDS011;28550;51.228;4.528;2023-04-15T14:05:34;6.50;;;2.95;;
42904;SDS011;28550;51.228;4.528;2023-04-15T14:08:00;14.75;;;4.28;;
42904;SDS011;28550;51.228;4.528;2023-04-15T14:10:26;7.18;;;4.40;;
42904;SDS011;28550;51.228;4.528;2023-04-15T14:12:51;7.95;;;4.07;;
42904;SDS011;28550;51.228;4.528;2023-04-15T14:15:17;4.80;;;3.20;;
42904;SDS011;28550;51.228;4.528;2023-04-15T14:17:43;5.78;;;3.42;;
42904;SDS011;28550;51.228;4.528;2023-04-15T14:20:19;8.48;;;4.00;;
42904;SDS011;28550;51.228;4.528;2023-04-15T14:22:44;10.68;;;3.97;;
42904;SDS011;28550;51.228;4.528;2023-04-15T14:25:10;5.53;;;3.72;;
42904;SDS011;28550;51.228;4.528;2023-04-15T14:27:45;4.80;;;3.67;;
42904;SDS011;28550;51.228;4.528;2023-04-15T14:30:12;12.60;;;4.25;;
42904;SDS011;28550;51.228;4.528;2023-04-15T14:32:38;7.97;;;3.90;;
42904;SDS011;28550;51.228;4.528;2023-04-15T14:35:04;7.50;;;4.38;;
42904;SDS011;28550;51.228;4.528;2023-04-15T14:37:33;5.90;;;4.15;;
42904;SDS011;28550;51.228;4.528;2023-04-15T14:40:01;6.90;;;4.72;;
42904;SDS011;28550;51.228;4.528;2023-04-15T14:42:30;5.95;;;4.22;;
42904;SDS011;28550;51.228;4.528;2023-04-15T14:44:55;3.58;;;3.20;;
42904;SDS011;28550;51.228;4.528;2023-04-15T14:47:21;6.47;;;3.70;;
42904;SDS011;28550;51.228;4.528;2023-04-15T14:49:47;4.65;;;3.15;;
42904;SDS011;28550;51.228;4.528;2023-04-15T14:52:13;4.82;;;3.38;;
42904;SDS011;28550;51.228;4.528;2023-04-15T14:54:38;6.68;;;3.22;;
42904;SDS011;28550;51.228;4.528;2023-04-15T14:57:04;4.63;;;2.40;;
42904;SDS011;28550;51.228;4.528;2023-04-15T14:59:32;3.58;;;2.75;;
42904;SDS011;28550;51.228;4.528;2023-04-15T15:01:58;3.70;;;2.70;;
42904;SDS011;28550;51.228;4.528;2023-04-15T15:04:25;25.77;;;4.25;;
42904;SDS011;28550;51.228;4.528;2023-04-15T15:06:50;1.92;;;1.60;;
42904;SDS011;28550;51.228;4.528;2023-04-15T15:09:16;2.88;;;1.88;;
42904;SDS011;28550;51.228;4.528;2023-04-15T15:11:46;4.43;;;2.30;;
42904;SDS011;28550;51.228;4.528;2023-04-15T15:14:12;2.75;;;2.10;;
42904;SDS011;28550;51.228;4.528;2023-04-15T15:16:38;5.32;;;2.13;;
42904;SDS011;28550;51.228;4.528;2023-04-15T15:19:04;13.88;;;2.92;;
42904;SDS011;28550;51.228;4.528;2023-04-15T15:21:30;5.72;;;2.80;;
42904;SDS011;28550;51.228;4.528;2023-04-15T15:23:56;3.42;;;2.33;;
42904;SDS011;28550;51.228;4.528;2023-04-15T15:26:30;2.38;;;2.08;;
42904;SDS011;28550;51.228;4.528;2023-04-15T15:28:59;9.13;;;3.20;;
42904;SDS011;28550;51.228;4.528;2023-04-15T15:31:25;9.80;;;2.78;;
42904;SDS011;28550;51.228;4.528;2023-04-15T15:33:51;4.20;;;2.80;;